createdAt,value
2023-03-17T00:02:05.961Z,7.98
2023-03-17T00:04:35.306Z,7.94
2023-03-17T00:07:03.680Z,7.91
2023-03-17T00:09:31.525Z,7.85
2023-03-17T00:11:59.872Z,7.85
2023-03-17T00:14:27.682Z,7.76
2023-03-17T00:16:55.747Z,7.67
2023-03-17T00:19:29.757Z,7.68
2023-03-17T00:21:59.902Z,7.67
2023-03-17T00:24:28.372Z,7.63
2023-03-17T00:26:56.439Z,7.58
2023-03-17T00:29:25.495Z,7.56
2023-03-17T00:31:54.524Z,7.51
2023-03-17T00:34:23.756Z,7.52
2023-03-17T00:36:53.393Z,7.48
2023-03-17T00:39:25.344Z,7.49
2023-03-17T00:41:55.577Z,7.50
2023-03-17T00:44:24.183Z,7.47
2023-03-17T00:46:52.427Z,7.44
2023-03-17T00:49:22.438Z,7.42
2023-03-17T00:51:51.016Z,7.40
2023-03-17T00:54:20.871Z,7.36
2023-03-17T00:56:52.016Z,7.38
2023-03-17T00:59:25.380Z,7.38
2023-03-17T01:01:53.462Z,7.37
2023-03-17T01:04:22.657Z,7.33
2023-03-17T01:06:52.060Z,7.27
2023-03-17T01:09:23.188Z,7.30
2023-03-17T01:11:53.551Z,7.28
2023-03-17T01:14:21.556Z,7.27
2023-03-17T01:16:50.489Z,7.24
2023-03-17T01:19:19.058Z,7.27
2023-03-17T01:21:47.979Z,7.29
2023-03-17T01:24:15.974Z,7.29
2023-03-17T01:26:43.889Z,7.28
2023-03-17T01:29:16.451Z,7.29
2023-03-17T01:31:45.566Z,7.30
2023-03-17T01:34:13.553Z,7.28
2023-03-17T01:36:43.882Z,7.26
2023-03-17T01:39:11.765Z,7.22
2023-03-17T01:41:40.462Z,7.19
2023-03-17T01:44:18.324Z,7.16
2023-03-17T01:46:47.351Z,7.14
2023-03-17T01:49:23.895Z,7.14
2023-03-17T01:51:58.755Z,7.12
2023-03-17T01:54:35.493Z,7.10
2023-03-17T01:57:09.407Z,7.09
2023-03-17T01:59:45.409Z,7.07
2023-03-17T02:02:18.813Z,7.03
2023-03-17T02:04:46.730Z,7.05
2023-03-17T02:07:15.569Z,7.07
2023-03-17T02:09:44.629Z,7.04
2023-03-17T02:12:13.460Z,7.04
2023-03-17T02:14:44.116Z,7.04
2023-03-17T02:17:14.685Z,7.05
2023-03-17T02:19:43.720Z,7.08
2023-03-17T02:22:13.438Z,7.04
2023-03-17T02:24:44.619Z,7.04
2023-03-17T02:27:15.940Z,7.01
2023-03-17T02:29:46.211Z,7.02
2023-03-17T02:32:15.941Z,6.97
2023-03-17T02:34:43.814Z,6.96
2023-03-17T02:37:13.195Z,6.93
2023-03-17T02:39:41.538Z,6.91
2023-03-17T02:42:10.699Z,6.89
2023-03-17T02:44:38.668Z,6.91
2023-03-17T02:47:07.593Z,6.89
2023-03-17T02:49:37.103Z,6.85
2023-03-17T02:52:05.447Z,6.81
2023-03-17T02:54:34.993Z,6.80
2023-03-17T02:57:02.811Z,6.78
2023-03-17T02:59:30.830Z,6.78
2023-03-17T03:01:58.673Z,6.76
2023-03-17T03:04:27.171Z,6.75
2023-03-17T03:06:55.508Z,6.78
2023-03-17T03:09:24.252Z,6.76
2023-03-17T03:11:53.627Z,6.76
2023-03-17T03:14:21.720Z,6.74
2023-03-17T03:16:49.877Z,6.71
2023-03-17T03:19:18.455Z,6.71
2023-03-17T03:21:46.328Z,6.73
2023-03-17T03:24:14.458Z,6.75
2023-03-17T03:26:42.410Z,6.72
2023-03-17T03:29:11.705Z,6.74
2023-03-17T03:31:39.720Z,6.77
2023-03-17T03:34:07.672Z,6.74
2023-03-17T03:36:35.643Z,6.70
2023-03-17T03:39:03.477Z,6.65
2023-03-17T03:41:31.613Z,6.64
2023-03-17T03:43:59.619Z,6.59
2023-03-17T03:46:29.281Z,6.57
2023-03-17T03:48:57.347Z,6.58
2023-03-17T03:51:25.313Z,6.53
2023-03-17T03:53:53.168Z,6.52
2023-03-17T03:56:21.658Z,6.54
2023-03-17T03:58:49.545Z,6.57
2023-03-17T04:01:17.683Z,6.55
2023-03-17T04:03:47.413Z,6.52
2023-03-17T04:06:16.218Z,6.52
2023-03-17T04:08:44.217Z,6.55
2023-03-17T04:11:12.455Z,6.52
2023-03-17T04:13:40.375Z,6.51
2023-03-17T04:16:09.119Z,6.49
2023-03-17T04:18:37.032Z,6.54
2023-03-17T04:21:07.110Z,6.48
2023-03-17T04:23:35.388Z,6.48
2023-03-17T04:26:04.102Z,6.51
2023-03-17T04:28:32.033Z,6.47
2023-03-17T04:30:59.886Z,6.43
2023-03-17T04:33:27.801Z,6.40
2023-03-17T04:35:56.071Z,6.39
2023-03-17T04:38:25.458Z,6.33
2023-03-17T04:40:53.317Z,6.27
2023-03-17T04:43:21.309Z,6.25
2023-03-17T04:45:49.241Z,6.25
2023-03-17T04:48:17.176Z,6.23
2023-03-17T04:50:47.895Z,6.20
2023-03-17T04:53:16.927Z,6.22
2023-03-17T04:55:47.292Z,6.21
2023-03-17T04:58:28.126Z,6.20
2023-03-17T05:00:58.187Z,6.22
2023-03-17T05:03:28.139Z,6.18
2023-03-17T05:05:56.526Z,6.17
2023-03-17T05:08:24.668Z,6.16
2023-03-17T05:10:54.845Z,6.17
2023-03-17T05:13:23.360Z,6.16
2023-03-17T05:15:52.239Z,6.16
2023-03-17T05:18:22.039Z,6.18
2023-03-17T05:20:49.920Z,6.17
2023-03-17T05:23:17.916Z,6.14
2023-03-17T05:25:46.772Z,6.17
2023-03-17T05:28:16.740Z,6.18
2023-03-17T05:30:45.849Z,6.19
2023-03-17T05:33:14.557Z,6.18
2023-03-17T05:35:42.650Z,6.16
2023-03-17T05:38:13.106Z,6.17
2023-03-17T05:40:41.267Z,6.15
2023-03-17T05:43:09.493Z,6.15
2023-03-17T05:45:39.119Z,6.12
2023-03-17T05:48:07.471Z,6.15
2023-03-17T05:50:35.362Z,6.11
2023-03-17T05:53:03.351Z,6.17
2023-03-17T05:55:31.571Z,6.18
2023-03-17T05:58:00.874Z,6.17
2023-03-17T06:00:29.302Z,6.15
2023-03-17T06:02:59.290Z,6.18
2023-03-17T06:05:27.370Z,6.23
2023-03-17T06:07:56.609Z,6.27
2023-03-17T06:10:25.506Z,6.30
2023-03-17T06:12:53.719Z,6.35
2023-03-17T06:15:21.952Z,6.39
2023-03-17T06:17:49.913Z,6.53
2023-03-17T06:20:19.784Z,6.61
2023-03-17T06:23:02.801Z,6.66
2023-03-17T06:25:36.073Z,6.82
2023-03-17T06:28:05.569Z,6.99
2023-03-17T06:30:34.406Z,7.07
2023-03-17T06:33:02.661Z,7.20
2023-03-17T06:35:32.798Z,7.29
2023-03-17T06:38:02.225Z,7.31
2023-03-17T06:40:30.514Z,7.52
2023-03-17T06:42:58.847Z,7.62
2023-03-17T06:45:26.912Z,7.78
2023-03-17T06:47:54.828Z,7.96
2023-03-17T06:50:22.789Z,8.05
2023-03-17T06:52:52.063Z,8.11
2023-03-17T06:55:21.264Z,8.11
2023-03-17T06:57:51.073Z,8.38
2023-03-17T07:00:20.884Z,8.26
2023-03-17T07:02:49.450Z,8.63
2023-03-17T07:05:17.897Z,8.72
2023-03-17T07:07:46.188Z,8.95
2023-03-17T07:10:15.750Z,8.76
2023-03-17T07:12:43.671Z,9.24
2023-03-17T07:15:12.808Z,9.67
2023-03-17T07:17:40.868Z,9.40
2023-03-17T07:20:10.708Z,9.78
2023-03-17T07:22:38.621Z,9.39
2023-03-17T07:25:07.857Z,9.37
2023-03-17T07:27:37.158Z,9.71
2023-03-17T07:30:06.718Z,9.94
2023-03-17T07:32:35.504Z,9.63
2023-03-17T07:35:04.839Z,10.14
2023-03-17T07:37:32.757Z,9.91
2023-03-17T07:40:00.666Z,10.22
2023-03-17T07:42:30.059Z,10.33
2023-03-17T07:44:59.627Z,10.25
2023-03-17T07:47:27.666Z,10.50
2023-03-17T07:49:55.738Z,10.61
2023-03-17T07:52:23.810Z,10.85
2023-03-17T07:54:53.080Z,11.17
2023-03-17T07:57:22.166Z,10.97
2023-03-17T07:59:50.688Z,11.14
2023-03-17T08:02:21.132Z,11.19
2023-03-17T08:04:49.248Z,11.49
2023-03-17T08:07:17.086Z,11.72
2023-03-17T08:09:45.087Z,11.70
2023-03-17T08:12:13.431Z,11.82
2023-03-17T08:14:41.807Z,11.66
2023-03-17T08:17:10.479Z,11.67
2023-03-17T08:19:41.033Z,11.85
2023-03-17T08:22:09.595Z,11.52
2023-03-17T08:24:39.601Z,11.47
2023-03-17T08:27:08.740Z,11.79
2023-03-17T08:29:36.561Z,12.19
2023-03-17T08:32:04.775Z,12.53
2023-03-17T08:34:32.938Z,12.85
2023-03-17T08:37:02.710Z,12.49
2023-03-17T08:39:31.722Z,13.13
2023-03-17T08:41:59.794Z,13.47
2023-03-17T08:44:28.050Z,13.23
2023-03-17T08:46:56.412Z,13.57
2023-03-17T08:49:24.422Z,14.61
2023-03-17T08:51:52.299Z,14.52
2023-03-17T08:54:21.952Z,15.40
2023-03-17T08:56:49.855Z,15.13
2023-03-17T08:59:17.793Z,15.40
2023-03-17T09:01:46.037Z,15.75
2023-03-17T09:04:13.938Z,15.75
2023-03-17T09:06:51.891Z,15.81
2023-03-17T09:09:32.050Z,16.16
2023-03-17T09:12:00.127Z,16.48
2023-03-17T09:14:28.496Z,16.52
2023-03-17T09:16:56.861Z,16.19
2023-03-17T09:19:24.878Z,16.39
2023-03-17T09:21:52.922Z,16.21
2023-03-17T09:24:22.423Z,16.87
2023-03-17T09:26:51.810Z,16.31
2023-03-17T09:29:19.654Z,16.81
2023-03-17T09:31:48.487Z,16.13
2023-03-17T09:34:16.562Z,16.35
2023-03-17T09:36:44.497Z,16.47
2023-03-17T09:39:12.702Z,16.29
2023-03-17T09:41:58.020Z,17.13
2023-03-17T09:44:41.328Z,16.24
2023-03-17T09:47:28.056Z,16.59
2023-03-17T09:49:59.680Z,16.57
2023-03-17T09:52:30.530Z,16.77
2023-03-17T09:55:00.007Z,16.19
2023-03-17T09:57:33.397Z,16.62
2023-03-17T10:00:06.479Z,16.95
2023-03-17T10:02:37.482Z,16.85
2023-03-17T10:05:15.038Z,17.77
2023-03-17T10:07:49.619Z,17.80
2023-03-17T10:10:23.523Z,17.43
2023-03-17T10:13:04.587Z,18.23
2023-03-17T10:15:38.359Z,18.17
2023-03-17T10:18:12.625Z,17.91
2023-03-17T10:20:50.392Z,18.58
2023-03-17T10:23:22.965Z,18.34
2023-03-17T10:25:50.940Z,18.64
2023-03-17T10:28:29.696Z,19.39
2023-03-17T10:31:07.882Z,18.47
2023-03-17T10:33:35.990Z,18.48
2023-03-17T10:36:09.677Z,17.41
2023-03-17T10:38:37.905Z,18.14
2023-03-17T10:41:10.368Z,17.82
2023-03-17T10:43:44.668Z,17.99
2023-03-17T10:46:22.335Z,18.18
2023-03-17T10:48:53.459Z,17.87
2023-03-17T10:51:31.800Z,17.33
2023-03-17T10:54:04.215Z,16.66
2023-03-17T10:56:36.146Z,16.99
2023-03-17T10:59:09.297Z,17.55
2023-03-17T11:01:39.650Z,17.72
2023-03-17T11:04:27.574Z,17.36
2023-03-17T11:06:58.132Z,17.38
2023-03-17T11:09:29.165Z,17.59
2023-03-17T11:12:06.058Z,18.51
2023-03-17T11:14:35.579Z,17.92
2023-03-17T11:17:05.762Z,17.81
2023-03-17T11:19:46.064Z,17.43
2023-03-17T11:22:18.140Z,17.58
2023-03-17T11:24:55.447Z,17.75
2023-03-17T11:27:32.370Z,18.34
2023-03-17T11:30:20.208Z,18.21
2023-03-17T11:32:55.036Z,17.96
2023-03-17T11:35:41.511Z,17.86
2023-03-17T11:38:22.045Z,17.56
2023-03-17T11:41:12.326Z,18.04
2023-03-17T11:43:53.062Z,18.23
2023-03-17T11:46:27.894Z,17.36
2023-03-17T11:49:04.101Z,17.22
2023-03-17T11:51:42.132Z,17.07
2023-03-17T11:54:14.022Z,17.09
2023-03-17T11:56:46.756Z,17.86
2023-03-17T11:59:26.138Z,18.24
2023-03-17T12:02:02.903Z,17.81
2023-03-17T12:04:34.445Z,17.61
2023-03-17T12:07:10.672Z,17.62
2023-03-17T12:09:43.262Z,17.55
2023-03-17T12:12:15.844Z,18.11
2023-03-17T12:14:48.728Z,18.30
2023-03-17T12:17:25.780Z,17.43
2023-03-17T12:20:08.725Z,17.82
2023-03-17T12:22:42.009Z,17.92
2023-03-17T12:25:20.189Z,17.44
2023-03-17T12:27:56.041Z,18.06
2023-03-17T12:30:31.261Z,17.42
2023-03-17T12:33:07.912Z,17.69
2023-03-17T12:35:38.980Z,17.09
2023-03-17T12:38:12.356Z,17.30
2023-03-17T12:40:58.015Z,17.41
2023-03-17T12:43:48.196Z,18.20
2023-03-17T12:46:56.363Z,17.68
2023-03-17T12:49:49.869Z,17.50
2023-03-17T12:52:27.494Z,17.87
2023-03-17T12:54:56.375Z,18.28
2023-03-17T12:57:31.046Z,18.28
2023-03-17T13:00:05.648Z,17.99
2023-03-17T13:02:38.460Z,17.37
2023-03-17T13:05:11.814Z,17.57
2023-03-17T13:07:47.877Z,17.89
2023-03-17T13:10:36.580Z,17.96
2023-03-17T13:13:25.401Z,18.07
2023-03-17T13:15:59.389Z,18.01
2023-03-17T13:18:48.027Z,17.66
2023-03-17T13:21:20.567Z,17.78
2023-03-17T13:23:55.019Z,18.45
2023-03-17T13:26:58.419Z,18.17
2023-03-17T13:29:39.605Z,17.73
2023-03-17T13:32:44.653Z,18.03
2023-03-17T13:35:21.567Z,17.44
2023-03-17T13:38:30.983Z,17.37
2023-03-17T13:41:18.158Z,17.95
2023-03-17T13:43:57.560Z,17.51
2023-03-17T13:46:40.404Z,17.61
2023-03-17T13:49:22.414Z,17.37
2023-03-17T13:52:00.040Z,17.97
2023-03-17T13:54:35.095Z,17.63
2023-03-17T13:57:26.235Z,17.82
2023-03-17T14:00:17.672Z,18.24
2023-03-17T14:02:45.957Z,18.49
2023-03-17T14:05:23.146Z,17.67
2023-03-17T14:07:56.020Z,17.47
2023-03-17T14:10:29.701Z,17.55
2023-03-17T14:13:04.216Z,17.23
2023-03-17T14:15:36.094Z,17.36
2023-03-17T14:18:10.909Z,17.75
2023-03-17T14:20:38.826Z,17.54
2023-03-17T14:23:07.678Z,17.25
2023-03-17T14:25:39.418Z,16.73
2023-03-17T14:28:11.307Z,16.50
2023-03-17T14:30:40.775Z,16.27
2023-03-17T14:33:23.884Z,16.17
2023-03-17T14:35:54.336Z,16.22
2023-03-17T14:38:24.636Z,15.98
2023-03-17T14:41:01.592Z,16.19
2023-03-17T14:43:29.643Z,16.22
2023-03-17T14:46:02.435Z,16.15
2023-03-17T14:48:34.084Z,16.06
2023-03-17T14:51:06.479Z,16.25
2023-03-17T14:53:36.141Z,16.03
2023-03-17T14:56:05.737Z,15.94
2023-03-17T14:58:37.994Z,15.84
2023-03-17T15:01:08.553Z,15.65
2023-03-17T15:03:40.353Z,15.65
2023-03-17T15:06:23.883Z,15.73
2023-03-17T15:08:52.692Z,15.86
2023-03-17T15:11:25.285Z,16.10
2023-03-17T15:13:57.071Z,16.09
2023-03-17T15:16:28.404Z,16.20
2023-03-17T15:19:08.937Z,15.85
2023-03-17T15:21:41.051Z,15.60
2023-03-17T15:24:24.456Z,15.71
2023-03-17T15:27:00.292Z,15.62
2023-03-17T15:29:29.953Z,15.49
2023-03-17T15:32:08.009Z,15.51
2023-03-17T15:34:36.121Z,15.61
2023-03-17T15:37:04.193Z,15.49
2023-03-17T15:39:32.249Z,15.55
2023-03-17T15:42:01.639Z,15.50
2023-03-17T15:44:29.994Z,15.40
2023-03-17T15:46:57.976Z,15.36
2023-03-17T15:49:26.977Z,15.28
2023-03-17T15:51:55.048Z,15.06
2023-03-17T15:54:23.157Z,15.08
2023-03-17T15:56:50.966Z,15.18
2023-03-17T15:59:20.527Z,15.07
2023-03-17T16:01:48.678Z,15.01
2023-03-17T16:04:17.901Z,14.92
2023-03-17T16:06:47.988Z,15.06
2023-03-17T16:09:18.231Z,15.00
2023-03-17T16:11:46.198Z,15.10
2023-03-17T16:14:14.550Z,15.24
2023-03-17T16:16:45.823Z,14.99
2023-03-17T16:19:20.081Z,15.02
2023-03-17T16:21:48.971Z,15.02
2023-03-17T16:24:21.587Z,15.15
2023-03-17T16:26:50.643Z,15.20
2023-03-17T16:29:20.389Z,15.32
2023-03-17T16:31:51.973Z,15.21
2023-03-17T16:34:21.263Z,15.07
2023-03-17T16:36:50.340Z,15.03
2023-03-17T16:39:19.396Z,14.84
2023-03-17T16:41:48.282Z,14.72
2023-03-17T16:44:18.118Z,14.76
2023-03-17T16:46:46.138Z,14.79
2023-03-17T16:49:16.456Z,14.74
2023-03-17T16:51:44.749Z,14.55
2023-03-17T16:54:13.002Z,14.60
2023-03-17T16:56:42.145Z,14.57
2023-03-17T16:59:13.759Z,14.43
2023-03-17T17:01:41.898Z,14.36
2023-03-17T17:04:11.113Z,14.32
2023-03-17T17:06:40.420Z,14.28
2023-03-17T17:09:08.333Z,14.35
2023-03-17T17:11:36.174Z,14.20
2023-03-17T17:14:04.055Z,14.23
2023-03-17T17:16:35.015Z,14.30
2023-03-17T17:19:04.602Z,14.27
2023-03-17T17:21:32.748Z,14.23
2023-03-17T17:24:01.967Z,14.18
2023-03-17T17:26:29.779Z,14.11
2023-03-17T17:28:57.630Z,14.13
2023-03-17T17:31:26.389Z,14.01
2023-03-17T17:33:54.538Z,14.00
2023-03-17T17:36:22.516Z,14.00
2023-03-17T17:38:51.742Z,13.91
2023-03-17T17:41:21.856Z,13.98
2023-03-17T17:43:50.076Z,13.88
2023-03-17T17:46:20.128Z,13.88
2023-03-17T17:48:48.317Z,13.84
2023-03-17T17:51:16.222Z,13.72
2023-03-17T17:53:44.286Z,13.66
2023-03-17T17:56:14.784Z,13.74
2023-03-17T17:58:44.802Z,13.66
2023-03-17T18:01:14.061Z,13.68
2023-03-17T18:03:43.143Z,13.63
2023-03-17T18:06:11.659Z,13.55
2023-03-17T18:08:40.469Z,13.67
2023-03-17T18:11:08.670Z,13.69
2023-03-17T18:13:38.959Z,13.61
2023-03-17T18:16:10.741Z,13.63
2023-03-17T18:18:42.243Z,13.65
2023-03-17T18:21:10.794Z,13.54
2023-03-17T18:23:38.875Z,13.57
2023-03-17T18:26:07.416Z,13.53
2023-03-17T18:28:35.977Z,13.43
2023-03-17T18:31:08.730Z,13.46
2023-03-17T18:33:38.371Z,13.38
2023-03-17T18:36:07.020Z,13.34
2023-03-17T18:38:35.066Z,13.29
2023-03-17T18:41:03.853Z,13.28
2023-03-17T18:43:31.683Z,13.28
2023-03-17T18:45:59.742Z,13.29
2023-03-17T18:48:27.584Z,13.28
2023-03-17T18:50:56.891Z,13.29
2023-03-17T18:53:24.861Z,13.25
2023-03-17T18:55:52.780Z,13.17
2023-03-17T18:58:20.745Z,13.10
2023-03-17T19:00:50.194Z,13.00
2023-03-17T19:03:18.647Z,12.85
2023-03-17T19:05:46.579Z,12.79
2023-03-17T19:08:16.660Z,12.78
2023-03-17T19:10:45.023Z,12.74
2023-03-17T19:13:13.295Z,12.71
2023-03-17T19:15:41.463Z,12.70
2023-03-17T19:18:09.621Z,12.67
2023-03-17T19:20:37.856Z,12.63
2023-03-17T19:23:06.934Z,12.63
2023-03-17T19:25:36.732Z,12.61
2023-03-17T19:28:05.372Z,12.58
2023-03-17T19:30:33.641Z,12.58
2023-03-17T19:33:01.779Z,12.53
2023-03-17T19:35:29.971Z,12.48
2023-03-17T19:37:58.254Z,12.49
2023-03-17T19:40:26.491Z,12.48
2023-03-17T19:42:56.050Z,12.47
2023-03-17T19:45:23.975Z,12.42
2023-03-17T19:47:52.013Z,12.44
2023-03-17T19:50:20.452Z,12.44
2023-03-17T19:52:48.777Z,12.43
2023-03-17T19:55:17.747Z,12.40
2023-03-17T19:57:45.694Z,12.36
2023-03-17T20:00:16.184Z,12.39
2023-03-17T20:02:44.055Z,12.36
2023-03-17T20:05:12.115Z,12.29
2023-03-17T20:07:40.180Z,12.25
2023-03-17T20:10:10.081Z,12.27
2023-03-17T20:12:38.623Z,12.24
2023-03-17T20:15:08.062Z,12.16
2023-03-17T20:17:37.517Z,12.09
2023-03-17T20:20:07.697Z,11.99
2023-03-17T20:22:36.122Z,11.95
2023-03-17T20:25:05.071Z,11.96
2023-03-17T20:27:35.857Z,11.85
2023-03-17T20:30:05.004Z,11.90
2023-03-17T20:32:34.458Z,11.92
2023-03-17T20:35:06.768Z,11.82
2023-03-17T20:37:35.732Z,11.88
2023-03-17T20:40:07.909Z,11.81
2023-03-17T20:42:36.374Z,11.72
2023-03-17T20:45:04.903Z,11.75
2023-03-17T20:47:32.756Z,11.69
2023-03-17T20:50:00.707Z,11.70
2023-03-17T20:52:30.522Z,11.68
2023-03-17T20:54:59.416Z,11.53
2023-03-17T20:57:28.764Z,11.41
2023-03-17T20:59:58.038Z,11.41
2023-03-17T21:02:26.397Z,11.17
2023-03-17T21:04:54.383Z,11.17
2023-03-17T21:07:23.205Z,11.12
2023-03-17T21:09:56.396Z,11.06
2023-03-17T21:12:25.386Z,10.95
2023-03-17T21:14:53.265Z,10.94
2023-03-17T21:17:22.737Z,10.91
2023-03-17T21:19:50.938Z,10.87
2023-03-17T21:22:18.833Z,10.89
2023-03-17T21:24:46.693Z,10.79
2023-03-17T21:27:16.614Z,10.73
2023-03-17T21:29:44.604Z,10.77
2023-03-17T21:32:12.652Z,10.77
2023-03-17T21:34:40.580Z,10.73
2023-03-17T21:37:08.569Z,10.56
2023-03-17T21:39:37.211Z,10.57
2023-03-17T21:42:08.661Z,10.62
2023-03-17T21:44:38.364Z,10.48
2023-03-17T21:47:07.632Z,10.26
2023-03-17T21:49:35.622Z,10.27
2023-03-17T21:52:03.706Z,10.27
2023-03-17T21:54:31.645Z,10.23
2023-03-17T21:56:59.480Z,10.32
2023-03-17T21:59:30.740Z,10.19
2023-03-17T22:02:00.173Z,10.16
2023-03-17T22:04:28.438Z,10.10
2023-03-17T22:06:56.672Z,10.05
2023-03-17T22:09:24.534Z,10.04
2023-03-17T22:11:52.320Z,10.06
2023-03-17T22:14:20.804Z,10.01
2023-03-17T22:16:49.186Z,10.05
2023-03-17T22:19:21.085Z,9.98
2023-03-17T22:21:49.468Z,9.95
2023-03-17T22:24:17.832Z,9.97
2023-03-17T22:26:46.634Z,9.97
2023-03-17T22:29:15.174Z,9.96
2023-03-17T22:31:43.225Z,9.98
2023-03-17T22:34:11.186Z,10.00
2023-03-17T22:36:41.642Z,9.97
2023-03-17T22:39:10.559Z,9.86
2023-03-17T22:41:38.901Z,9.99
2023-03-17T22:44:08.385Z,9.94
2023-03-17T22:46:36.697Z,9.89
2023-03-17T22:49:05.395Z,9.89
2023-03-17T22:51:33.701Z,9.91
2023-03-17T22:54:03.046Z,9.90
2023-03-17T22:56:31.157Z,9.91
2023-03-17T22:58:59.135Z,9.90
2023-03-17T23:01:27.296Z,9.89
2023-03-17T23:03:55.874Z,9.87
2023-03-17T23:06:24.618Z,9.81
2023-03-17T23:08:52.808Z,9.78
2023-03-17T23:11:25.819Z,9.80
2023-03-17T23:13:54.823Z,9.73
2023-03-17T23:16:23.083Z,9.78
2023-03-17T23:18:51.418Z,9.75
2023-03-17T23:21:27.728Z,9.72
2023-03-17T23:23:56.430Z,9.66
2023-03-17T23:26:25.948Z,9.62
2023-03-17T23:28:53.864Z,9.67
2023-03-17T23:31:22.431Z,9.62
2023-03-17T23:33:51.230Z,9.63
2023-03-17T23:36:20.094Z,9.67
2023-03-17T23:38:48.641Z,9.66
2023-03-17T23:41:17.703Z,9.71
2023-03-17T23:43:47.614Z,9.68
2023-03-17T23:46:16.090Z,9.72
2023-03-17T23:48:44.952Z,9.78
2023-03-17T23:51:14.218Z,9.79
2023-03-17T23:53:42.897Z,9.75
2023-03-17T23:56:13.032Z,9.73
2023-03-17T23:58:42.328Z,9.77
